White Sulphur Springs, New York
Current Conditions -  °F | °C
As of 4:35 AM on Monday 20 Oct 2014 (Local Time) from KMSV Reporting Station
Clear Clear  
Wind Chill: 25°   Ceiling: Unl
Heat Index: 30°   Visibility: 10mi
Dew Point: 27°   Wind: 5mph
Humidity: 86%   Direction: 240°WSW
Pressure: 30.04"   Gusts: NA
Location:  41.8°N, 74.83°W
Report Text: KMSV 200835Z AUTO 24004KT 10SM CLR M01/M03 A3004 RMK AO1
Loading
Personal Weather Stations






























Interactive Weather Map New forecast layout! Learn more

10-Day Weather Forecast

Advertisements
Track Severe Weather on mobile